Time;durP1;ratioP1;P1;durP2;ratioP2;P2;SDS_P1;SDS_P2;PMS_P1;PMS_P2;Temp;Humidity;BMP_temperature;BMP_pressure;BME280_temperature;BME280_humidity;BME280_pressure;Samples;Min_cycle;Max_cycle;Signal;HPM_P1;HPM_P2
2020/12/23 00:02:21;;;;;;;67.27;25.13;;;;;;;;;;5007690;28;20191;-72
2020/12/23 00:04:47;;;;;;;66.03;27.27;;;;;;;;;;5025068;28;20718;-73
2020/12/23 00:07:14;;;;;;;65.13;26.63;;;;;;;;;;5015370;28;20260;-72
2020/12/23 00:09:43;;;;;;;58.33;26.93;;;;;;;;;;5020433;28;20469;-72
2020/12/23 00:12:09;;;;;;;59.03;27.47;;;;;;;;;;5013671;28;20194;-72
2020/12/23 00:14:34;;;;;;;74.90;29.50;;;;;;;;;;5022541;28;20232;-72
2020/12/23 00:16:59;;;;;;;83.80;28.50;;;;;;;;;;5017029;28;20210;-72
2020/12/23 00:19:25;;;;;;;76.10;26.93;;;;;;;;;;5023585;28;20218;-72
2020/12/23 00:21:50;;;;;;;59.10;25.40;;;;;;;;;;5015182;28;20273;-72
2020/12/23 00:24:15;;;;;;;65.67;25.53;;;;;;;;;;5024867;28;20194;-72
2020/12/23 00:26:43;;;;;;;63.37;23.87;;;;;;;;;;5014749;28;21418;-74
2020/12/23 00:29:09;;;;;;;77.93;24.80;;;;;;;;;;5024330;28;20190;-72
2020/12/23 00:31:34;;;;;;;58.77;23.20;;;;;;;;;;5039963;28;20190;-72
2020/12/23 00:33:59;;;;;;;50.53;22.57;;;;;;;;;;5015681;28;20208;-73
2020/12/23 00:36:25;;;;;;;58.07;24.40;;;;;;;;;;5024924;28;20665;-72
2020/12/23 00:38:50;;;;;;;72.03;24.90;;;;;;;;;;5015862;28;20193;-72
2020/12/23 00:41:15;;;;;;;70.03;22.87;;;;;;;;;;5024148;28;20194;-72
2020/12/23 00:43:41;;;;;;;60.57;23.07;;;;;;;;;;5014597;28;20193;-72
2020/12/23 00:46:10;;;;;;;69.83;24.00;;;;;;;;;;5025523;28;20190;-73
2020/12/23 00:48:35;;;;;;;80.77;23.70;;;;;;;;;;5011358;28;20190;-72
2020/12/23 00:51:01;;;;;;;71.03;24.03;;;;;;;;;;5025717;28;20229;-72
2020/12/23 00:53:26;;;;;;;74.77;24.67;;;;;;;;;;5014472;28;20535;-72
2020/12/23 00:55:52;;;;;;;51.43;23.43;;;;;;;;;;5022527;28;20217;-72
2020/12/23 00:58:17;;;;;;;50.13;22.83;;;;;;;;;;5015396;28;20189;-72
2020/12/23 01:00:42;;;;;;;56.77;22.73;;;;;;;;;;5022894;28;20182;-72
2020/12/23 01:03:08;;;;;;;57.00;24.50;;;;;;;;;;5022805;28;20236;-72
2020/12/23 01:05:33;;;;;;;62.07;25.10;;;;;;;;;;5014104;28;20201;-72
2020/12/23 01:07:58;;;;;;;64.33;26.30;;;;;;;;;;5021594;28;20210;-72
2020/12/23 01:10:24;;;;;;;61.37;25.17;;;;;;;;;;5015795;28;20209;-72
2020/12/23 01:12:49;;;;;;;65.63;25.73;;;;;;;;;;5023494;28;20596;-72
2020/12/23 01:15:14;;;;;;;58.37;25.77;;;;;;;;;;5015098;28;21112;-72
2020/12/23 01:17:40;;;;;;;66.07;28.43;;;;;;;;;;5023025;28;20212;-72
2020/12/23 01:20:05;;;;;;;59.30;26.43;;;;;;;;;;5015106;28;20244;-72
2020/12/23 01:22:30;;;;;;;72.53;26.67;;;;;;;;;;5021676;28;20348;-73
2020/12/23 01:24:56;;;;;;;57.77;25.63;;;;;;;;;;5015122;28;20623;-72
2020/12/23 01:27:21;;;;;;;62.53;27.23;;;;;;;;;;5024089;28;20598;-72
2020/12/23 01:29:46;;;;;;;52.17;24.73;;;;;;;;;;5022622;28;20193;-71
2020/12/23 01:32:12;;;;;;;61.37;26.17;;;;;;;;;;5015189;28;20196;-70
2020/12/23 01:34:37;;;;;;;65.33;26.50;;;;;;;;;;5022528;28;20229;-71
2020/12/23 01:37:02;;;;;;;56.40;25.43;;;;;;;;;;5010905;28;20742;-70
2020/12/23 01:39:28;;;;;;;53.37;25.83;;;;;;;;;;5018727;28;20221;-70
2020/12/23 01:41:57;;;;;;;67.40;26.23;;;;;;;;;;5012067;28;20198;-70
2020/12/23 01:44:23;;;;;;;50.43;24.80;;;;;;;;;;5022565;28;20182;-70
2020/12/23 01:46:49;;;;;;;76.20;27.47;;;;;;;;;;5012605;28;20198;-70
2020/12/23 01:49:14;;;;;;;45.63;23.23;;;;;;;;;;5022099;28;20190;-70
2020/12/23 01:51:40;;;;;;;61.40;27.33;;;;;;;;;;5011190;28;20202;-70
2020/12/23 01:54:05;;;;;;;65.13;27.37;;;;;;;;;;5022709;28;20901;-70
2020/12/23 01:56:30;;;;;;;71.27;27.80;;;;;;;;;;5016190;28;21331;-70
2020/12/23 01:58:56;;;;;;;58.63;25.87;;;;;;;;;;5017976;28;20552;-70
2020/12/23 02:01:24;;;;;;;57.40;26.63;;;;;;;;;;5019153;28;20244;-71
2020/12/23 02:03:50;;;;;;;66.43;27.20;;;;;;;;;;5012598;28;20673;-71
2020/12/23 02:06:16;;;;;;;64.37;28.27;;;;;;;;;;5021310;28;20209;-70
2020/12/23 02:08:42;;;;;;;63.13;28.53;;;;;;;;;;5012387;28;20190;-70
2020/12/23 02:11:12;;;;;;;68.63;28.00;;;;;;;;;;5021311;28;20676;-70
2020/12/23 02:13:44;;;;;;;69.60;28.63;;;;;;;;;;5011536;28;20208;-70
2020/12/23 02:16:11;;;;;;;74.63;28.17;;;;;;;;;;5022202;28;20214;-70
2020/12/23 02:18:37;;;;;;;69.90;27.93;;;;;;;;;;5010212;28;20198;-71
2020/12/23 02:21:03;;;;;;;59.90;25.83;;;;;;;;;;5023154;28;20190;-70
2020/12/23 02:23:29;;;;;;;64.50;26.13;;;;;;;;;;5013133;28;20182;-70
2020/12/23 02:25:55;;;;;;;60.63;26.47;;;;;;;;;;5021058;28;20189;-70
2020/12/23 02:28:21;;;;;;;69.93;26.83;;;;;;;;;;5013302;28;20196;-71
2020/12/23 02:30:47;;;;;;;73.27;27.37;;;;;;;;;;5021602;28;20187;-71
2020/12/23 02:33:13;;;;;;;75.67;27.53;;;;;;;;;;5022993;28;20197;-71
2020/12/23 02:35:38;;;;;;;72.10;25.73;;;;;;;;;;5027983;28;20225;-70
2020/12/23 02:38:03;;;;;;;67.57;27.07;;;;;;;;;;5021612;28;20186;-70
2020/12/23 02:40:29;;;;;;;58.30;26.47;;;;;;;;;;5012971;28;20189;-70
2020/12/23 02:42:54;;;;;;;53.77;27.17;;;;;;;;;;5023083;28;20194;-70
2020/12/23 02:45:20;;;;;;;65.37;28.30;;;;;;;;;;5013803;28;20186;-71
2020/12/23 02:47:45;;;;;;;76.43;27.87;;;;;;;;;;5021876;28;20194;-71
2020/12/23 02:50:10;;;;;;;73.40;28.33;;;;;;;;;;5013252;28;20243;-70
2020/12/23 02:52:35;;;;;;;73.40;29.80;;;;;;;;;;5018870;28;20194;-70
2020/12/23 02:55:01;;;;;;;80.73;28.57;;;;;;;;;;5012895;28;20530;-71
2020/12/23 02:57:26;;;;;;;75.33;30.23;;;;;;;;;;5019641;28;20274;-71
2020/12/23 02:59:51;;;;;;;82.67;30.13;;;;;;;;;;5021217;28;20637;-71
2020/12/23 03:02:17;;;;;;;75.57;30.00;;;;;;;;;;5014063;28;20325;-71
2020/12/23 03:04:42;;;;;;;74.03;29.90;;;;;;;;;;5020937;28;20202;-70
2020/12/23 03:07:07;;;;;;;87.17;31.97;;;;;;;;;;5011933;28;20301;-70
2020/12/23 03:09:33;;;;;;;85.90;31.63;;;;;;;;;;5022384;28;20320;-71
2020/12/23 03:11:58;;;;;;;82.03;32.83;;;;;;;;;;5011726;28;20281;-71
2020/12/23 03:14:23;;;;;;;95.97;34.93;;;;;;;;;;5020192;28;20273;-71
2020/12/23 03:16:49;;;;;;;96.93;33.33;;;;;;;;;;5011884;28;20628;-71
2020/12/23 03:19:14;;;;;;;112.40;35.93;;;;;;;;;;5019587;28;20217;-71
2020/12/23 03:21:39;;;;;;;89.67;34.73;;;;;;;;;;5012657;28;20208;-71
2020/12/23 03:24:05;;;;;;;109.40;37.00;;;;;;;;;;5021568;28;20197;-71
2020/12/23 03:26:30;;;;;;;107.30;35.70;;;;;;;;;;5013439;28;20189;-71
2020/12/23 03:28:55;;;;;;;104.37;35.10;;;;;;;;;;5020937;28;20268;-71
2020/12/23 03:31:21;;;;;;;96.73;35.83;;;;;;;;;;5020758;28;20573;-71
2020/12/23 03:33:46;;;;;;;98.82;35.63;;;;;;;;;;5012190;28;20681;-71
2020/12/23 03:36:12;;;;;;;100.68;35.78;;;;;;;;;;5019480;28;20374;-72
2020/12/23 03:38:38;;;;;;;98.70;36.40;;;;;;;;;;5010713;28;20198;-71
2020/12/23 03:41:03;;;;;;;90.88;34.78;;;;;;;;;;5019370;28;20197;-71
2020/12/23 03:43:29;;;;;;;99.47;34.03;;;;;;;;;;5012285;28;20246;-71
2020/12/23 03:45:54;;;;;;;93.37;33.93;;;;;;;;;;5020881;28;20281;-71
2020/12/23 03:48:19;;;;;;;87.35;32.83;;;;;;;;;;5012859;28;20220;-71
2020/12/23 03:50:45;;;;;;;80.53;31.67;;;;;;;;;;5017022;28;20202;-71
2020/12/23 03:53:11;;;;;;;96.43;32.63;;;;;;;;;;5012295;28;20194;-71
2020/12/23 03:55:36;;;;;;;90.87;31.63;;;;;;;;;;5021417;28;20719;-71
2020/12/23 03:58:02;;;;;;;106.73;33.77;;;;;;;;;;5019197;28;20239;-71
2020/12/23 04:00:27;;;;;;;93.00;32.83;;;;;;;;;;5013436;28;20190;-71
2020/12/23 04:02:53;;;;;;;101.90;34.47;;;;;;;;;;5019025;28;20626;-71
2020/12/23 04:05:18;;;;;;;104.25;34.35;;;;;;;;;;5010860;28;20664;-71
2020/12/23 04:07:43;;;;;;;102.30;34.30;;;;;;;;;;5019750;28;20237;-70
2020/12/23 04:10:09;;;;;;;106.10;33.53;;;;;;;;;;5012638;28;20695;-70
2020/12/23 04:12:38;;;;;;;103.30;33.03;;;;;;;;;;5019584;28;20647;-70
2020/12/23 04:15:07;;;;;;;106.27;34.73;;;;;;;;;;5012235;28;20186;-70
2020/12/23 04:17:33;;;;;;;97.07;33.13;;;;;;;;;;5020811;28;20193;-71
2020/12/23 04:19:58;;;;;;;95.22;33.53;;;;;;;;;;5011817;28;20240;-71
2020/12/23 04:22:28;;;;;;;98.30;34.37;;;;;;;;;;5020291;28;20190;-71
2020/12/23 04:24:54;;;;;;;105.07;34.37;;;;;;;;;;5009858;28;20201;-70
2020/12/23 04:27:20;;;;;;;102.90;34.03;;;;;;;;;;5020808;28;20281;-70
2020/12/23 04:29:45;;;;;;;91.40;31.80;;;;;;;;;;5020689;28;20293;-70
2020/12/23 04:32:10;;;;;;;95.17;31.97;;;;;;;;;;5012384;28;20648;-70
2020/12/23 04:34:36;;;;;;;87.60;31.10;;;;;;;;;;5020114;28;20287;-70
2020/12/23 04:37:01;;;;;;;73.10;29.63;;;;;;;;;;5008220;28;20206;-70
2020/12/23 04:39:26;;;;;;;68.93;28.23;;;;;;;;;;5021273;28;20221;-70
2020/12/23 04:41:51;;;;;;;78.47;29.13;;;;;;;;;;5012433;28;20281;-71
2020/12/23 04:44:17;;;;;;;65.53;27.10;;;;;;;;;;5022031;28;20273;-71
2020/12/23 04:46:43;;;;;;;67.57;26.00;;;;;;;;;;5019117;28;20229;-71
2020/12/23 04:49:09;;;;;;;68.63;26.40;;;;;;;;;;5025576;28;20316;-71
2020/12/23 04:51:36;;;;;;;67.57;26.17;;;;;;;;;;5015790;28;20310;-71
2020/12/23 04:54:05;;;;;;;65.10;26.53;;;;;;;;;;5024078;28;20525;-71
2020/12/23 04:56:32;;;;;;;70.10;26.77;;;;;;;;;;5013419;28;20202;-72
2020/12/23 04:58:58;;;;;;;63.60;24.83;;;;;;;;;;5037923;28;20186;-72
2020/12/23 05:01:24;;;;;;;76.57;26.13;;;;;;;;;;5027096;28;20685;-71
2020/12/23 05:03:54;;;;;;;71.67;25.10;;;;;;;;;;5014872;28;20259;-73
2020/12/23 05:06:20;;;;;;;71.60;26.43;;;;;;;;;;5026009;28;20261;-73
2020/12/23 05:08:46;;;;;;;77.13;27.23;;;;;;;;;;5014435;28;20187;-71
2020/12/23 05:11:12;;;;;;;84.43;26.70;;;;;;;;;;5026675;28;20229;-72
2020/12/23 05:13:39;;;;;;;68.43;25.37;;;;;;;;;;5011280;28;20244;-72
2020/12/23 05:16:20;;;;;;;71.23;26.23;;;;;;;;;;5021126;28;20281;-72
2020/12/23 05:18:45;;;;;;;76.20;26.57;;;;;;;;;;5011215;28;20186;-73
2020/12/23 05:21:17;;;;;;;62.67;24.77;;;;;;;;;;5027501;28;20264;-73
2020/12/23 05:23:44;;;;;;;68.68;25.48;;;;;;;;;;5007579;28;20273;-72
2020/12/23 05:26:10;;;;;;;78.38;27.63;;;;;;;;;;5026034;28;20252;-72
2020/12/23 05:28:36;;;;;;;78.83;26.17;;;;;;;;;;5014325;28;20662;-72
2020/12/23 05:31:03;;;;;;;78.67;26.73;;;;;;;;;;5020823;28;20221;-73
2020/12/23 05:33:32;;;;;;;90.43;28.65;;;;;;;;;;5013483;28;20205;-72
2020/12/23 05:36:03;;;;;;;83.83;28.00;;;;;;;;;;5022352;28;20230;-72
2020/12/23 05:38:30;;;;;;;83.60;28.30;;;;;;;;;;5020899;28;20192;-72
2020/12/23 05:40:58;;;;;;;99.70;30.23;;;;;;;;;;5016187;28;20196;-72
2020/12/23 05:43:24;;;;;;;98.35;31.35;;;;;;;;;;5023205;28;20514;-73
2020/12/23 05:45:52;;;;;;;106.70;29.92;;;;;;;;;;5017794;28;20259;-72
2020/12/23 05:48:18;;;;;;;101.70;29.48;;;;;;;;;;5026092;28;20194;-70
2020/12/23 05:50:44;;;;;;;122.88;31.60;;;;;;;;;;5018321;28;20735;-71
2020/12/23 05:53:12;;;;;;;118.70;31.48;;;;;;;;;;5022130;28;20536;-70
2020/12/23 05:55:49;;;;;;;145.43;33.00;;;;;;;;;;5022666;28;20696;-71
2020/12/23 05:58:31;;;;;;;122.63;32.40;;;;;;;;;;5024547;28;20201;-71
2020/12/23 06:00:59;;;;;;;160.65;35.38;;;;;;;;;;5011223;28;20210;-70
2020/12/23 06:03:42;;;;;;;149.77;36.60;;;;;;;;;;5023714;28;20189;-70
2020/12/23 06:06:10;;;;;;;213.17;37.63;;;;;;;;;;5014197;28;20581;-71
2020/12/23 06:08:37;;;;;;;180.98;38.72;;;;;;;;;;5020883;28;20170;-72
2020/12/23 06:11:38;;;;;;;232.37;40.07;;;;;;;;;;5018802;28;20537;-73
2020/12/23 06:14:07;;;;;;;241.90;41.42;;;;;;;;;;5023571;28;20182;-74
2020/12/23 06:16:35;;;;;;;204.80;40.08;;;;;;;;;;5009360;28;20218;-76
2020/12/23 06:19:04;;;;;;;202.20;39.65;;;;;;;;;;5022921;28;20186;-75
2020/12/23 06:21:29;;;;;;;251.73;41.17;;;;;;;;;;5011027;28;20202;-73
2020/12/23 06:24:04;;;;;;;226.32;40.75;;;;;;;;;;5020714;28;20182;-73
2020/12/23 06:26:31;;;;;;;251.05;40.90;;;;;;;;;;5012204;28;20255;-72
2020/12/23 06:28:58;;;;;;;234.73;39.43;;;;;;;;;;5024215;28;20186;-71
2020/12/23 06:31:38;;;;;;;227.17;39.90;;;;;;;;;;5011736;28;20640;-71
2020/12/23 06:34:04;;;;;;;189.57;38.10;;;;;;;;;;5024965;28;20223;-71
2020/12/23 06:36:33;;;;;;;160.97;33.50;;;;;;;;;;5022558;28;20214;-71
2020/12/23 06:39:28;;;;;;;187.95;39.30;;;;;;;;;;5016002;28;20193;-71
2020/12/23 06:41:59;;;;;;;192.27;37.70;;;;;;;;;;5015041;28;20622;-70
2020/12/23 06:44:45;;;;;;;184.43;35.57;;;;;;;;;;5019292;28;20193;-71
2020/12/23 06:47:12;;;;;;;152.80;33.43;;;;;;;;;;4657769;28;10000461;-73
2020/12/23 06:49:43;;;;;;;159.95;35.40;;;;;;;;;;5007943;28;20217;-73
2020/12/23 06:52:21;;;;;;;185.90;36.03;;;;;;;;;;5014178;28;20265;-72
2020/12/23 06:54:52;;;;;;;170.80;34.67;;;;;;;;;;5010984;28;20239;-72
2020/12/23 06:57:39;;;;;;;153.05;33.92;;;;;;;;;;5017973;28;20665;-72
2020/12/23 07:00:21;;;;;;;146.93;33.63;;;;;;;;;;5014948;28;20670;-73
2020/12/23 07:02:48;;;;;;;118.43;30.93;;;;;;;;;;5016744;28;20201;-74
2020/12/23 07:05:32;;;;;;;140.63;33.10;;;;;;;;;;5008203;28;20196;-75
2020/12/23 07:07:59;;;;;;;125.28;31.95;;;;;;;;;;5018765;28;20209;-75
2020/12/23 07:10:39;;;;;;;135.90;32.57;;;;;;;;;;5006131;28;20197;-76
2020/12/23 07:13:16;;;;;;;119.65;30.75;;;;;;;;;;5018265;28;20216;-74
2020/12/23 07:15:55;;;;;;;111.87;31.17;;;;;;;;;;5014810;28;20213;-74
2020/12/23 07:18:29;;;;;;;121.90;31.73;;;;;;;;;;5013770;28;20204;-73
2020/12/23 07:21:06;;;;;;;112.68;29.88;;;;;;;;;;5006471;28;20732;-73
2020/12/23 07:23:34;;;;;;;107.03;31.03;;;;;;;;;;5016007;28;20985;-72
2020/12/23 07:26:03;;;;;;;101.13;28.67;;;;;;;;;;5007561;28;20504;-72
2020/12/23 07:28:31;;;;;;;97.78;28.98;;;;;;;;;;5014734;28;20193;-72
2020/12/23 07:30:59;;;;;;;97.13;27.63;;;;;;;;;;5007992;28;20281;-72
2020/12/23 07:33:26;;;;;;;122.88;29.35;;;;;;;;;;5016469;28;20193;-72
2020/12/23 07:35:57;;;;;;;100.05;29.50;;;;;;;;;;5007697;28;20234;-70
2020/12/23 07:38:26;;;;;;;114.97;29.43;;;;;;;;;;5016020;28;20205;-70
2020/12/23 07:40:52;;;;;;;129.87;31.70;;;;;;;;;;5007044;28;20202;-71
2020/12/23 07:43:19;;;;;;;122.72;29.77;;;;;;;;;;5015300;28;20209;-70
2020/12/23 07:45:45;;;;;;;113.00;29.10;;;;;;;;;;5006409;28;20194;-70
2020/12/23 07:48:13;;;;;;;102.23;28.00;;;;;;;;;;5014925;28;20236;-70
2020/12/23 07:50:42;;;;;;;89.07;27.27;;;;;;;;;;5002845;28;20285;-69
2020/12/23 07:53:17;;;;;;;89.00;26.23;;;;;;;;;;5014390;28;20229;-69
2020/12/23 07:55:48;;;;;;;100.55;26.30;;;;;;;;;;5010267;28;20221;-69
2020/12/23 07:58:14;;;;;;;98.55;26.50;;;;;;;;;;5015205;28;20201;-70
2020/12/23 08:00:46;;;;;;;106.55;25.77;;;;;;;;;;5013989;28;20491;-69
2020/12/23 08:03:11;;;;;;;107.10;24.00;;;;;;;;;;5005130;28;20193;-70
2020/12/23 08:05:38;;;;;;;89.07;23.42;;;;;;;;;;5004447;28;20248;-70
2020/12/23 08:08:06;;;;;;;86.82;23.38;;;;;;;;;;5001708;28;20224;-70
2020/12/23 08:10:32;;;;;;;88.25;24.58;;;;;;;;;;5014223;28;20202;-70
2020/12/23 08:12:59;;;;;;;100.35;25.17;;;;;;;;;;4994212;28;20536;-70
2020/12/23 08:15:25;;;;;;;83.80;23.80;;;;;;;;;;5006856;28;20278;-70
2020/12/23 08:18:17;;;;;;;88.57;23.15;;;;;;;;;;5005710;28;20492;-70
2020/12/23 08:20:42;;;;;;;87.85;23.65;;;;;;;;;;5004406;28;20633;-70
2020/12/23 08:23:09;;;;;;;82.63;24.08;;;;;;;;;;5009950;28;20198;-70
2020/12/23 08:25:35;;;;;;;102.75;24.38;;;;;;;;;;5018713;28;20182;-71
2020/12/23 08:28:01;;;;;;;90.50;23.75;;;;;;;;;;5007536;28;20190;-71
2020/12/23 08:30:29;;;;;;;95.05;23.23;;;;;;;;;;5018027;28;21091;-70
2020/12/23 08:33:11;;;;;;;87.22;23.70;;;;;;;;;;5008004;28;20571;-71
2020/12/23 08:35:39;;;;;;;80.88;23.45;;;;;;;;;;5018003;28;20311;-71
2020/12/23 08:38:05;;;;;;;88.22;23.67;;;;;;;;;;5011385;28;20197;-73
2020/12/23 08:40:31;;;;;;;94.20;22.92;;;;;;;;;;5016829;28;20194;-72
2020/12/23 08:42:58;;;;;;;83.68;22.77;;;;;;;;;;5018335;28;20538;-73
2020/12/23 08:45:26;;;;;;;82.72;21.77;;;;;;;;;;5007726;28;20204;-73
2020/12/23 08:47:51;;;;;;;77.30;21.58;;;;;;;;;;5015910;28;20193;-72
2020/12/23 08:50:21;;;;;;;75.60;20.83;;;;;;;;;;5006771;28;20190;-72
2020/12/23 08:52:48;;;;;;;89.05;21.15;;;;;;;;;;5017693;28;20529;-73
2020/12/23 08:55:17;;;;;;;63.13;20.13;;;;;;;;;;5009880;28;20197;-72
2020/12/23 08:57:43;;;;;;;71.13;21.48;;;;;;;;;;5016663;28;20554;-72
2020/12/23 09:00:23;;;;;;;82.20;21.25;;;;;;;;;;5008988;28;20681;-72
2020/12/23 09:02:49;;;;;;;74.97;21.55;;;;;;;;;;5018790;28;20559;-72
2020/12/23 09:05:26;;;;;;;78.97;21.55;;;;;;;;;;5007936;28;20229;-72
2020/12/23 09:08:08;;;;;;;81.63;22.02;;;;;;;;;;5017179;28;20197;-72
2020/12/23 09:10:38;;;;;;;75.15;20.48;;;;;;;;;;5007945;28;20185;-72
2020/12/23 09:13:11;;;;;;;75.32;22.27;;;;;;;;;;5018528;28;20186;-72
2020/12/23 09:15:38;;;;;;;70.75;22.50;;;;;;;;;;5009436;28;20241;-72
2020/12/23 09:18:05;;;;;;;82.28;23.75;;;;;;;;;;5018126;28;20679;-72
2020/12/23 09:20:30;;;;;;;81.93;22.83;;;;;;;;;;5011266;28;20205;-72
2020/12/23 09:22:55;;;;;;;77.47;22.98;;;;;;;;;;5016675;28;20182;-72
2020/12/23 09:25:26;;;;;;;64.30;23.25;;;;;;;;;;5015802;28;20197;-72
2020/12/23 09:27:56;;;;;;;71.28;24.40;;;;;;;;;;5008937;28;20251;-72
2020/12/23 09:30:29;;;;;;;75.75;23.58;;;;;;;;;;5017662;28;20629;-72
2020/12/23 09:32:54;;;;;;;81.60;26.10;;;;;;;;;;5007327;28;20337;-72
2020/12/23 09:35:24;;;;;;;93.40;27.98;;;;;;;;;;5016844;28;20701;-72
2020/12/23 09:38:02;;;;;;;63.28;24.65;;;;;;;;;;5009356;28;20209;-72
2020/12/23 09:40:28;;;;;;;64.18;25.85;;;;;;;;;;5019226;28;20186;-72
2020/12/23 09:42:53;;;;;;;63.30;25.25;;;;;;;;;;5010831;28;20194;-70
2020/12/23 09:45:19;;;;;;;69.03;28.27;;;;;;;;;;5019360;28;20237;-70
2020/12/23 09:47:44;;;;;;;69.95;28.98;;;;;;;;;;5008577;28;20609;-70
2020/12/23 09:50:10;;;;;;;58.17;27.00;;;;;;;;;;5017702;28;20559;-71
2020/12/23 09:52:35;;;;;;;60.83;26.88;;;;;;;;;;5009016;28;20209;-71
2020/12/23 09:55:01;;;;;;;52.20;25.90;;;;;;;;;;5017222;28;20707;-71
2020/12/23 09:57:26;;;;;;;47.75;25.40;;;;;;;;;;5008340;28;20680;-70
2020/12/23 09:59:52;;;;;;;49.70;24.25;;;;;;;;;;5014150;28;20210;-71
2020/12/23 10:02:17;;;;;;;48.65;25.85;;;;;;;;;;5015930;28;20201;-71
2020/12/23 10:04:42;;;;;;;42.95;24.42;;;;;;;;;;5005879;28;20575;-72
2020/12/23 10:07:09;;;;;;;39.05;22.75;;;;;;;;;;5016370;28;20220;-72
2020/12/23 10:09:35;;;;;;;38.15;22.38;;;;;;;;;;5009197;28;20196;-72
2020/12/23 10:12:00;;;;;;;38.08;22.65;;;;;;;;;;5016419;28;20193;-72
2020/12/23 10:14:26;;;;;;;40.10;21.88;;;;;;;;;;5019393;28;21338;-72
2020/12/23 10:16:51;;;;;;;34.53;21.63;;;;;;;;;;5011374;28;20229;-72
2020/12/23 10:19:16;;;;;;;31.50;21.17;;;;;;;;;;5000321;28;20716;-72
2020/12/23 10:21:42;;;;;;;33.55;21.15;;;;;;;;;;5006188;28;20182;-71
2020/12/23 10:24:07;;;;;;;33.90;20.70;;;;;;;;;;5002711;28;20194;-72
2020/12/23 10:26:32;;;;;;;32.53;20.85;;;;;;;;;;5001628;28;20200;-72
2020/12/23 10:28:58;;;;;;;28.25;19.33;;;;;;;;;;5009949;28;20194;-72
2020/12/23 10:31:23;;;;;;;30.02;19.17;;;;;;;;;;5021466;28;20206;-72
2020/12/23 10:33:48;;;;;;;31.25;20.90;;;;;;;;;;5015847;28;20189;-72
2020/12/23 10:36:16;;;;;;;29.55;19.25;;;;;;;;;;5005077;28;20237;-72
2020/12/23 10:38:41;;;;;;;33.22;20.02;;;;;;;;;;5015492;28;20292;-72
2020/12/23 10:41:07;;;;;;;28.13;19.30;;;;;;;;;;5005702;28;20197;-72
2020/12/23 10:43:33;;;;;;;26.33;19.05;;;;;;;;;;5015666;28;20194;-72
2020/12/23 10:45:58;;;;;;;25.13;17.63;;;;;;;;;;4999399;28;20541;-72
2020/12/23 10:48:24;;;;;;;27.27;18.38;;;;;;;;;;5016696;28;20521;-72
2020/12/23 10:50:49;;;;;;;24.17;17.50;;;;;;;;;;5007824;28;20194;-72
2020/12/23 10:53:14;;;;;;;24.15;18.15;;;;;;;;;;5018376;28;20190;-72
2020/12/23 10:55:40;;;;;;;24.38;17.70;;;;;;;;;;5003230;28;20776;-72
2020/12/23 10:58:05;;;;;;;27.77;18.27;;;;;;;;;;5018292;28;20209;-72
2020/12/23 11:00:30;;;;;;;22.33;16.88;;;;;;;;;;5015172;28;20190;-72
2020/12/23 11:02:56;;;;;;;23.65;18.00;;;;;;;;;;5008785;28;20593;-72
2020/12/23 11:05:22;;;;;;;22.55;17.52;;;;;;;;;;5012267;28;20530;-72
2020/12/23 11:07:47;;;;;;;25.80;17.63;;;;;;;;;;5008906;28;20205;-72
2020/12/23 11:10:14;;;;;;;22.45;17.40;;;;;;;;;;5023161;28;20194;-72
2020/12/23 11:12:40;;;;;;;21.45;16.48;;;;;;;;;;5004988;28;20616;-74
2020/12/23 11:15:05;;;;;;;22.17;16.40;;;;;;;;;;5014339;28;20192;-75
2020/12/23 11:17:31;;;;;;;21.90;16.33;;;;;;;;;;5007178;28;20256;-75
2020/12/23 11:19:56;;;;;;;21.45;16.05;;;;;;;;;;5010170;28;21041;-74
2020/12/23 11:22:21;;;;;;;17.65;14.55;;;;;;;;;;5004065;28;20180;-73
2020/12/23 11:24:47;;;;;;;20.48;14.80;;;;;;;;;;5014321;28;20741;-73
2020/12/23 11:27:12;;;;;;;16.40;13.23;;;;;;;;;;5007270;28;20240;-72
2020/12/23 11:29:37;;;;;;;15.23;13.25;;;;;;;;;;5015592;28;20193;-71
2020/12/23 11:32:03;;;;;;;16.13;12.60;;;;;;;;;;5015817;28;20201;-71
2020/12/23 11:34:28;;;;;;;14.15;11.82;;;;;;;;;;5003185;28;20241;-70
2020/12/23 11:36:57;;;;;;;16.25;12.57;;;;;;;;;;5008677;28;20209;-70
2020/12/23 11:39:23;;;;;;;14.27;11.50;;;;;;;;;;5006040;28;20194;-71
2020/12/23 11:41:53;;;;;;;13.90;11.77;;;;;;;;;;5016435;28;20658;-71
2020/12/23 11:44:18;;;;;;;13.93;11.52;;;;;;;;;;5005284;28;20189;-72
2020/12/23 11:46:47;;;;;;;18.67;12.13;;;;;;;;;;5016900;28;20691;-73
2020/12/23 11:49:12;;;;;;;15.15;11.20;;;;;;;;;;5004508;28;20671;-72
2020/12/23 11:51:37;;;;;;;12.23;10.40;;;;;;;;;;5011408;28;20297;-72
2020/12/23 11:54:03;;;;;;;13.05;10.60;;;;;;;;;;5006784;28;20217;-72
2020/12/23 11:56:28;;;;;;;15.07;11.10;;;;;;;;;;5017457;28;20293;-72
2020/12/23 11:58:53;;;;;;;12.55;10.85;;;;;;;;;;5010003;28;20264;-72
2020/12/23 12:01:22;;;;;;;12.07;10.25;;;;;;;;;;5017450;28;23930;-72
2020/12/23 12:03:47;;;;;;;14.45;11.15;;;;;;;;;;5027296;28;20225;-73
2020/12/23 12:06:19;;;;;;;13.52;11.05;;;;;;;;;;5009598;28;20226;-72
2020/12/23 12:08:45;;;;;;;13.70;11.02;;;;;;;;;;5014519;28;20182;-72
2020/12/23 12:11:10;;;;;;;14.90;11.13;;;;;;;;;;5008324;28;20204;-73
2020/12/23 12:13:36;;;;;;;15.55;11.27;;;;;;;;;;5020510;28;20273;-74
2020/12/23 12:16:01;;;;;;;13.75;10.63;;;;;;;;;;5022127;28;20210;-74
2020/12/23 12:18:26;;;;;;;13.55;10.52;;;;;;;;;;5016621;28;20195;-74
2020/12/23 12:20:52;;;;;;;15.30;11.55;;;;;;;;;;5010740;28;20194;-73
2020/12/23 12:23:17;;;;;;;13.48;11.90;;;;;;;;;;5013615;28;20209;-72
2020/12/23 12:25:42;;;;;;;16.10;11.30;;;;;;;;;;5011498;28;20948;-74
2020/12/23 12:28:08;;;;;;;13.27;10.45;;;;;;;;;;5017077;28;20834;-73
2020/12/23 12:30:35;;;;;;;16.10;10.68;;;;;;;;;;5006280;28;20218;-73
2020/12/23 12:33:01;;;;;;;13.13;10.63;;;;;;;;;;5015476;28;20190;-72
2020/12/23 12:35:26;;;;;;;13.82;11.57;;;;;;;;;;5013220;28;20244;-73
2020/12/23 12:37:51;;;;;;;12.95;10.93;;;;;;;;;;5002947;28;21906;-74
2020/12/23 12:40:17;;;;;;;14.13;10.98;;;;;;;;;;5015680;28;20190;-73
2020/12/23 12:42:42;;;;;;;14.88;11.05;;;;;;;;;;5004372;28;20190;-73
2020/12/23 12:45:07;;;;;;;18.23;11.70;;;;;;;;;;5016803;28;20190;-72
2020/12/23 12:47:33;;;;;;;20.98;12.07;;;;;;;;;;5006968;28;20186;-75
2020/12/23 12:49:58;;;;;;;17.95;12.68;;;;;;;;;;5015751;28;20255;-73
2020/12/23 12:52:23;;;;;;;21.70;13.00;;;;;;;;;;5006379;28;20732;-75
2020/12/23 12:54:49;;;;;;;24.35;13.80;;;;;;;;;;5016941;28;20181;-74
2020/12/23 12:57:14;;;;;;;17.25;12.35;;;;;;;;;;5007900;28;20202;-73
2020/12/23 12:59:40;;;;;;;18.90;12.05;;;;;;;;;;5015376;28;20309;-74
2020/12/23 13:02:06;;;;;;;16.63;12.20;;;;;;;;;;5000081;28;20269;-73
2020/12/23 13:04:31;;;;;;;22.45;13.23;;;;;;;;;;5011379;28;20213;-73
2020/12/23 13:06:57;;;;;;;19.02;12.70;;;;;;;;;;5012818;28;20241;-77
2020/12/23 13:09:22;;;;;;;18.27;12.55;;;;;;;;;;5008782;28;20280;-75
2020/12/23 13:11:47;;;;;;;20.60;12.75;;;;;;;;;;5013404;28;20285;-73
2020/12/23 13:14:13;;;;;;;15.75;12.52;;;;;;;;;;5006936;28;20200;-75
2020/12/23 13:16:38;;;;;;;18.20;13.18;;;;;;;;;;5011889;28;20249;-77
2020/12/23 13:19:03;;;;;;;18.85;13.27;;;;;;;;;;5008522;28;20288;-77
2020/12/23 13:21:29;;;;;;;19.90;12.95;;;;;;;;;;5012270;28;20793;-71
2020/12/23 13:23:54;;;;;;;15.98;12.25;;;;;;;;;;5006293;28;20205;-73
2020/12/23 13:26:20;;;;;;;14.55;12.00;;;;;;;;;;5013851;28;20182;-72
2020/12/23 13:28:47;;;;;;;13.43;11.13;;;;;;;;;;5006175;28;20209;-73
2020/12/23 13:31:13;;;;;;;15.20;11.40;;;;;;;;;;5014318;28;20194;-73
2020/12/23 13:33:39;;;;;;;17.70;11.95;;;;;;;;;;5011946;28;20190;-73
2020/12/23 13:36:04;;;;;;;15.13;11.57;;;;;;;;;;5007112;28;20261;-71
2020/12/23 13:38:30;;;;;;;14.98;11.30;;;;;;;;;;5012607;28;21619;-71
2020/12/23 13:40:56;;;;;;;14.77;11.10;;;;;;;;;;5005159;28;20193;-71
2020/12/23 13:43:23;;;;;;;12.65;10.02;;;;;;;;;;5015129;28;20197;-73
2020/12/23 13:45:49;;;;;;;11.93;10.25;;;;;;;;;;5005295;28;20177;-73
2020/12/23 13:48:14;;;;;;;12.43;9.80;;;;;;;;;;5014940;28;20676;-72
2020/12/23 13:50:40;;;;;;;11.57;9.65;;;;;;;;;;5006250;28;20472;-72
2020/12/23 13:53:06;;;;;;;12.40;9.98;;;;;;;;;;5016912;28;20191;-69
2020/12/23 13:55:33;;;;;;;13.23;10.00;;;;;;;;;;5004275;28;20714;-71
2020/12/23 13:58:00;;;;;;;12.48;9.77;;;;;;;;;;5010306;28;20186;-70
2020/12/23 14:00:25;;;;;;;14.27;10.75;;;;;;;;;;4997794;28;20653;-70
2020/12/23 14:02:51;;;;;;;12.30;10.43;;;;;;;;;;5011681;28;20193;-71
2020/12/23 14:05:17;;;;;;;12.88;9.35;;;;;;;;;;5008153;28;20204;-70
2020/12/23 14:07:42;;;;;;;11.27;10.13;;;;;;;;;;5004328;28;20320;-71
2020/12/23 14:10:08;;;;;;;13.77;10.35;;;;;;;;;;5011193;28;20281;-71
2020/12/23 14:12:33;;;;;;;10.85;9.45;;;;;;;;;;5015079;28;20568;-71
2020/12/23 14:14:58;;;;;;;11.23;9.43;;;;;;;;;;5013401;28;20224;-71